Time;durP1;ratioP1;P1;durP2;ratioP2;P2;SDS_P1;SDS_P2;PMS_P1;PMS_P2;Temp;Humidity;BMP_temperature;BMP_pressure;BME280_temperature;BME280_humidity;BME280_pressure;Samples;Min_cycle;Max_cycle;Signal;HPM_P1;HPM_P2
2022/04/03 00:02:12;;;;;;;2.70;1.67;;;;;;;-142.75;100.00;79238.47;5031869;28;20033;-66
2022/04/03 00:04:38;;;;;;;5.32;1.70;;;;;;;-142.75;100.00;79246.34;5031630;28;20429;-66
2022/04/03 00:07:03;;;;;;;4.13;1.48;;;;;;;-142.75;100.00;79242.41;5032083;28;20110;-66
2022/04/03 00:09:28;;;;;;;3.67;1.75;;;;;;;-142.75;100.00;79234.53;5031663;28;20024;-66
2022/04/03 00:11:55;;;;;;;5.17;1.67;;;;;;;-142.75;100.00;79234.53;5031735;28;20025;-66
2022/04/03 00:14:20;;;;;;;;;;;;;;;-142.75;100.00;79216.78;5030874;28;20271;-66
2022/04/03 00:16:45;;;;;;;2.47;1.47;;;;;;;-142.75;100.00;79208.91;5031658;28;20287;-66
2022/04/03 00:19:11;;;;;;;3.97;1.58;;;;;;;-142.75;100.00;79208.91;5030963;28;20506;-66
2022/04/03 00:21:36;;;;;;;2.92;1.50;;;;;;;-142.75;100.00;79195.13;5031474;28;20021;-66
2022/04/03 00:24:02;;;;;;;2.63;1.65;;;;;;;-142.75;100.00;79204.97;5030091;28;20120;-66
2022/04/03 00:26:27;;;;;;;6.75;1.63;;;;;;;-142.75;100.00;79216.78;5031342;28;20026;-65
2022/04/03 00:28:52;;;;;;;7.93;1.50;;;;;;;-142.75;100.00;79220.75;5031335;28;20028;-67
2022/04/03 00:31:18;;;;;;;7.07;1.87;;;;;;;-142.75;100.00;79216.78;5030143;28;20284;-67
2022/04/03 00:33:43;;;;;;;7.88;1.88;;;;;;;-142.75;100.00;79208.91;5031226;28;20282;-67
2022/04/03 00:36:09;;;;;;;3.53;1.75;;;;;;;-142.75;100.00;79214.81;5031270;28;20446;-67
2022/04/03 00:38:34;;;;;;;2.75;1.58;;;;;;;-142.75;100.00;79218.75;5029621;28;20021;-68
2022/04/03 00:41:03;;;;;;;4.13;2.22;;;;;;;-142.75;100.00;79214.81;5031070;28;20021;-66
2022/04/03 00:43:29;;;;;;;5.30;1.93;;;;;;;-142.75;100.00;79210.88;5031023;28;20059;-66
2022/04/03 00:45:54;;;;;;;3.55;1.90;;;;;;;-142.75;100.00;79201.03;5031196;28;20025;-66
2022/04/03 00:48:20;;;;;;;4.72;1.90;;;;;;;-142.75;100.00;79199.06;5030685;28;20033;-66
2022/04/03 00:50:45;;;;;;;3.92;1.80;;;;;;;-142.75;100.00;79199.06;5030830;28;20049;-66
2022/04/03 00:53:11;;;;;;;6.40;1.60;;;;;;;-142.75;100.00;79189.22;5031129;28;20111;-66
2022/04/03 00:55:41;;;;;;;5.35;2.15;;;;;;;-142.75;100.00;79201.03;5030919;28;20175;-66
2022/04/03 00:58:06;;;;;;;3.67;1.77;;;;;;;-142.75;100.00;79193.16;5030526;28;20088;-66
2022/04/03 01:00:32;;;;;;;2.47;1.60;;;;;;;-142.75;100.00;79212.84;5031026;28;20017;-66
2022/04/03 01:02:57;;;;;;;3.58;1.90;;;;;;;-142.75;100.00;79242.41;5030631;28;20063;-66
2022/04/03 01:05:23;;;;;;;4.03;2.13;;;;;;;-142.75;100.00;79262.09;5030950;28;20032;-66
2022/04/03 01:07:49;;;;;;;2.45;1.65;;;;;;;-142.75;100.00;79273.91;5030563;28;21252;-66
2022/04/03 01:10:14;;;;;;;3.72;1.92;;;;;;;-142.75;100.00;79279.84;5030779;28;20399;-67
2022/04/03 01:12:41;;;;;;;3.58;2.20;;;;;;;-142.75;100.00;79319.22;5030844;28;20022;-66
2022/04/03 01:15:07;;;;;;;6.40;2.30;;;;;;;-142.75;100.00;79317.25;5029498;28;20021;-67
2022/04/03 01:17:32;;;;;;;4.63;2.10;;;;;;;-142.75;100.00;79297.56;5030424;28;20045;-66
2022/04/03 01:19:58;;;;;;;3.38;1.75;;;;;;;-142.75;100.00;79307.41;5030515;28;20554;-66
2022/04/03 01:22:23;;;;;;;3.53;2.13;;;;;;;-142.75;100.00;79299.53;5030863;28;20060;-66
2022/04/03 01:24:55;;;;;;;3.53;1.90;;;;;;;-142.75;100.00;79307.41;5030514;28;20430;-66
2022/04/03 01:27:21;;;;;;;4.07;2.03;;;;;;;-142.75;100.00;79303.47;5030599;28;20025;-66
2022/04/03 01:29:48;;;;;;;5.80;2.35;;;;;;;-142.75;100.00;79311.34;5030409;28;20026;-66
2022/04/03 01:32:13;;;;;;;2.97;1.70;;;;;;;-142.75;100.00;79319.22;5029179;28;20021;-66
2022/04/03 01:34:38;;;;;;;3.00;1.42;;;;;;;-142.75;100.00;79331.03;5030587;28;20027;-66
2022/04/03 01:37:04;;;;;;;3.30;2.00;;;;;;;-142.75;100.00;79362.56;5029243;28;20079;-67
2022/04/03 01:39:30;;;;;;;4.53;1.90;;;;;;;-142.75;100.00;79360.59;5030316;28;20860;-67
2022/04/03 01:41:55;;;;;;;4.47;1.88;;;;;;;-142.75;100.00;79348.78;5030435;28;20105;-66
2022/04/03 01:44:21;;;;;;;2.60;1.63;;;;;;;-142.75;100.00;79338.94;5030432;28;20029;-66
2022/04/03 01:46:46;;;;;;;4.45;2.10;;;;;;;-142.75;100.00;79331.03;5030347;28;20380;-66
2022/04/03 01:49:12;;;;;;;4.40;1.77;;;;;;;-142.75;100.00;79323.16;5030060;28;20032;-66
2022/04/03 01:51:37;;;;;;;4.28;1.85;;;;;;;-142.75;100.00;79327.09;5030484;28;20053;-66
2022/04/03 01:54:03;;;;;;;4.20;2.00;;;;;;;-142.75;100.00;79333.00;5030374;28;20021;-66
2022/04/03 01:56:29;;;;;;;;;;;;;;;-142.75;100.00;79327.09;5030726;28;20029;-66
2022/04/03 01:58:55;;;;;;;3.10;1.90;;;;;;;-142.75;100.00;79333.00;5029879;28;19987;-66
2022/04/03 02:01:20;;;;;;;5.63;1.85;;;;;;;-142.75;100.00;79331.03;5030211;28;20102;-66
2022/04/03 02:03:46;;;;;;;3.87;2.00;;;;;;;-142.75;100.00;79317.25;5032106;28;20067;-66
2022/04/03 02:06:13;;;;;;;;;;;;;;;-142.75;100.00;79303.47;5034549;28;20275;-66
2022/04/03 02:08:38;;;;;;;4.25;1.60;;;;;;;-142.75;100.00;79311.34;5033623;28;19966;-66
2022/04/03 02:11:03;;;;;;;3.83;1.65;;;;;;;-142.75;100.00;79319.22;5034001;28;20108;-66
2022/04/03 02:13:29;;;;;;;3.08;1.70;;;;;;;-142.75;100.00;79323.16;5033846;28;20021;-66
2022/04/03 02:15:54;;;;;;;2.23;1.63;;;;;;;-142.75;100.00;79329.06;5033810;28;20554;-66
2022/04/03 02:18:19;;;;;;;4.43;2.00;;;;;;;-142.75;100.00;79340.91;5032116;28;20268;-67
2022/04/03 02:20:45;;;;;;;2.87;1.93;;;;;;;-142.75;100.00;79354.69;5033745;28;20275;-66
2022/04/03 02:23:11;;;;;;;3.40;1.98;;;;;;;-142.75;100.00;79356.66;5033660;28;20272;-66
2022/04/03 02:25:36;;;;;;;4.28;1.85;;;;;;;-142.75;100.00;79380.28;5033609;28;20082;-66
2022/04/03 02:28:01;;;;;;;2.97;1.83;;;;;;;-142.75;100.00;79415.75;5033401;28;20036;-66
2022/04/03 02:30:27;;;;;;;2.95;1.55;;;;;;;-142.75;100.00;79453.19;5032172;28;20394;-65
2022/04/03 02:32:53;;;;;;;4.28;1.77;;;;;;;-142.75;100.00;79478.78;5033585;28;20028;-66
2022/04/03 02:35:18;;;;;;;4.03;1.70;;;;;;;-142.75;100.00;79488.63;5033554;28;20449;-66
2022/04/03 02:37:44;;;;;;;5.65;2.05;;;;;;;-142.75;100.00;79482.72;5033418;28;20033;-67
2022/04/03 02:40:12;;;;;;;4.38;2.13;;;;;;;-142.75;100.00;79480.75;5033196;28;20499;-66
2022/04/03 02:42:38;;;;;;;5.83;2.03;;;;;;;-142.75;100.00;79470.91;5033334;28;20446;-66
2022/04/03 02:45:05;;;;;;;4.28;2.17;;;;;;;-142.75;100.00;79472.88;5033018;28;20041;-66
2022/04/03 02:47:32;;;;;;;5.00;2.30;;;;;;;-142.75;100.00;79472.88;5033298;28;20036;-66
2022/04/03 02:49:57;;;;;;;3.67;2.13;;;;;;;-142.75;100.00;79496.50;5031621;28;20112;-66
2022/04/03 02:52:22;;;;;;;3.65;1.88;;;;;;;-142.75;100.00;79478.78;5033236;28;20096;-67
2022/04/03 02:54:48;;;;;;;5.53;2.45;;;;;;;-142.75;100.00;79463.03;5033082;28;20039;-66
2022/04/03 02:57:15;;;;;;;;;;;;;;;-142.75;100.00;79453.19;5033493;28;20033;-66
2022/04/03 02:59:41;;;;;;;4.13;2.10;;;;;;;-142.75;100.00;79443.31;5032645;28;19921;-66
2022/04/03 03:02:06;;;;;;;;;;;;;;;-142.75;100.00;79457.13;5033525;28;20109;-66
2022/04/03 03:04:32;;;;;;;4.67;2.20;;;;;;;-142.75;100.00;79463.03;5031673;28;20023;-66
2022/04/03 03:06:57;;;;;;;4.80;2.05;;;;;;;-142.75;100.00;79484.69;5032827;28;20017;-66
2022/04/03 03:09:23;;;;;;;4.50;2.20;;;;;;;-142.75;100.00;79492.56;5032688;28;20432;-66
2022/04/03 03:11:49;;;;;;;4.40;1.95;;;;;;;-142.75;100.00;79512.28;5032712;28;20033;-66
2022/04/03 03:14:14;;;;;;;3.47;1.73;;;;;;;-142.75;100.00;79531.97;5032373;28;20446;-66
2022/04/03 03:16:39;;;;;;;3.80;1.70;;;;;;;-142.75;100.00;79547.72;5032956;28;20033;-66
2022/04/03 03:19:05;;;;;;;4.10;1.90;;;;;;;-142.75;100.00;79551.69;5032281;28;20087;-66
2022/04/03 03:21:30;;;;;;;3.10;1.90;;;;;;;-142.75;100.00;79543.78;5032404;28;20103;-66
2022/04/03 03:23:55;;;;;;;2.85;2.00;;;;;;;-142.75;100.00;79557.59;5032578;28;20032;-66
2022/04/03 03:26:21;;;;;;;4.23;1.53;;;;;;;-142.75;100.00;79551.69;5031328;28;20682;-66
2022/04/03 03:28:46;;;;;;;3.80;2.10;;;;;;;-142.75;100.00;79551.69;5031080;28;20268;-66
2022/04/03 03:31:11;;;;;;;3.27;1.90;;;;;;;-142.75;100.00;79531.97;5031155;28;20382;-67
2022/04/03 03:33:37;;;;;;;4.28;2.45;;;;;;;-142.75;100.00;79518.19;5032466;28;20017;-66
2022/04/03 03:36:03;;;;;;;3.67;2.08;;;;;;;-142.75;100.00;79510.31;5031123;28;20029;-66
2022/04/03 03:38:28;;;;;;;4.25;2.25;;;;;;;-142.75;100.00;79500.47;5031879;28;20049;-66
2022/04/03 03:40:53;;;;;;;3.40;2.03;;;;;;;-142.75;100.00;79492.56;5032312;28;20068;-66
2022/04/03 03:43:18;;;;;;;4.33;2.23;;;;;;;-142.75;100.00;79474.84;5032036;28;20060;-66
2022/04/03 03:45:44;;;;;;;3.17;2.00;;;;;;;-142.75;100.00;79466.97;5032116;28;20280;-66
2022/04/03 03:48:12;;;;;;;3.40;1.63;;;;;;;-142.75;100.00;79449.25;5031839;28;20280;-66
2022/04/03 03:50:37;;;;;;;3.33;1.87;;;;;;;-142.75;100.00;79441.34;5032080;28;20060;-66
2022/04/03 03:53:04;;;;;;;3.63;1.85;;;;;;;-142.75;100.00;79413.78;5032198;28;20483;-66
2022/04/03 03:55:29;;;;;;;5.17;2.03;;;;;;;-142.75;100.00;79413.78;5032005;28;20026;-66
2022/04/03 03:57:54;;;;;;;4.35;2.58;;;;;;;-142.75;100.00;79401.97;5030257;28;20021;-67
2022/04/03 04:00:20;;;;;;;8.00;2.05;;;;;;;-142.75;100.00;79388.16;5031850;28;20400;-66
2022/04/03 04:02:45;;;;;;;4.13;2.25;;;;;;;-142.75;100.00;79386.19;5031883;28;20031;-66
2022/04/03 04:05:10;;;;;;;5.15;2.67;;;;;;;-142.75;100.00;79398.03;5031625;28;20028;-66
2022/04/03 04:07:43;;;;;;;4.78;2.42;;;;;;;-142.75;100.00;79421.66;5031730;28;20045;-67
2022/04/03 04:10:12;;;;;;;4.33;1.90;;;;;;;-142.75;100.00;79421.66;5031522;28;20032;-66
2022/04/03 04:12:39;;;;;;;5.47;2.67;;;;;;;-142.75;100.00;79433.47;5030326;28;20036;-66
2022/04/03 04:15:05;;;;;;;3.60;2.03;;;;;;;-142.75;100.00;79466.97;5031547;28;20499;-66
2022/04/03 04:17:38;;;;;;;;;;;;;;;-142.75;100.00;79480.75;5055681;22;20104;-67
2022/04/03 04:20:11;;;;;;;4.23;2.73;;;;;;;-142.75;100.00;79468.94;5008224;28;20441;-68
2022/04/03 04:22:36;;;;;;;8.40;3.23;;;;;;;-142.75;100.00;79476.81;4992747;28;20021;-68
2022/04/03 04:25:02;;;;;;;5.30;3.22;;;;;;;-142.75;100.00;79478.78;5010951;28;20021;-69
2022/04/03 04:27:27;;;;;;;9.60;2.95;;;;;;;-142.75;100.00;79480.75;4994075;28;20739;-68
2022/04/03 04:29:52;;;;;;;6.65;2.75;;;;;;;-142.75;100.00;79484.69;5011217;28;20034;-68
2022/04/03 04:32:21;;;;;;;4.82;2.92;;;;;;;-142.75;100.00;79482.72;5011922;28;20407;-68
2022/04/03 04:34:48;;;;;;;4.30;2.70;;;;;;;-142.75;100.00;79480.75;4994075;28;20018;-69
2022/04/03 04:37:14;;;;;;;4.63;2.73;;;;;;;-142.75;100.00;79474.84;5011478;28;20037;-70
2022/04/03 04:39:39;;;;;;;5.88;3.25;;;;;;;-142.75;100.00;79472.88;5003717;28;20030;-68
2022/04/03 04:42:04;;;;;;;4.43;2.63;;;;;;;-142.75;100.00;79463.03;4993844;28;20033;-68
2022/04/03 04:44:30;;;;;;;4.68;2.67;;;;;;;-142.75;100.00;79457.13;4993633;28;20654;-68
2022/04/03 04:46:55;;;;;;;7.33;2.97;;;;;;;-142.75;100.00;79457.13;5011439;28;20071;-68
2022/04/03 04:49:20;;;;;;;3.83;2.80;;;;;;;-142.75;100.00;79453.19;5011015;28;20648;-69
2022/04/03 04:51:45;;;;;;;5.95;2.85;;;;;;;-142.75;100.00;79470.91;5011412;28;20050;-68
2022/04/03 04:54:11;;;;;;;4.95;3.13;;;;;;;-142.75;100.00;79461.06;4993603;28;20415;-69
2022/04/03 04:56:36;;;;;;;5.57;3.30;;;;;;;-142.75;100.00;79476.81;5011136;28;20030;-70
2022/04/03 04:59:02;;;;;;;5.05;2.80;;;;;;;-142.75;100.00;79480.75;5010853;28;20107;-68
2022/04/03 05:01:28;;;;;;;6.65;2.90;;;;;;;-142.75;100.00;79472.88;4993435;28;20022;-68
2022/04/03 05:03:53;;;;;;;6.40;2.85;;;;;;;-142.75;100.00;79480.75;5011079;28;20028;-68
2022/04/03 05:06:22;;;;;;;6.13;3.17;;;;;;;-142.75;100.00;79478.78;5011055;28;20030;-68
2022/04/03 05:08:49;;;;;;;6.53;2.63;;;;;;;-142.75;100.00;79488.63;5010618;28;20025;-69
2022/04/03 05:11:14;;;;;;;5.47;3.13;;;;;;;-142.75;100.00;79496.50;5011076;28;20033;-68
2022/04/03 05:13:40;;;;;;;5.13;2.72;;;;;;;-142.75;100.00;79490.59;4993390;28;20408;-68
2022/04/03 05:16:06;;;;;;;6.82;3.10;;;;;;;-142.75;100.00;79488.63;5011047;28;20037;-69
2022/04/03 05:18:32;;;;;;;5.35;3.47;;;;;;;-142.75;100.00;79484.69;5010509;28;20030;-70
2022/04/03 05:20:57;;;;;;;5.03;3.33;;;;;;;-142.75;100.00;79484.69;5010929;28;20101;-68
2022/04/03 05:23:23;;;;;;;5.30;3.00;;;;;;;-142.75;100.00;79476.81;5010889;28;20084;-68
2022/04/03 05:25:48;;;;;;;4.95;2.67;;;;;;;-142.75;100.00;79468.94;5010854;28;20057;-68
2022/04/03 05:28:14;;;;;;;9.77;2.88;;;;;;;-142.75;100.00;79449.25;5010641;28;20025;-68
2022/04/03 05:30:39;;;;;;;4.60;2.75;;;;;;;-142.75;100.00;79437.41;5010919;28;20117;-68
2022/04/03 05:33:04;;;;;;;6.15;2.92;;;;;;;-142.75;100.00;79431.50;4993321;28;20554;-68
2022/04/03 05:35:30;;;;;;;4.28;2.95;;;;;;;-142.75;100.00;79415.75;5010886;28;20030;-68
2022/04/03 05:37:55;;;;;;;7.93;3.25;;;;;;;-142.75;100.00;79403.94;5014010;28;20376;-69
2022/04/03 05:40:20;;;;;;;4.35;2.67;;;;;;;-142.75;100.00;79388.16;4997259;28;20048;-67
2022/04/03 05:42:46;;;;;;;4.15;2.63;;;;;;;-142.75;100.00;79362.56;4996823;28;20037;-68
2022/04/03 05:45:12;;;;;;;5.78;3.03;;;;;;;-142.75;100.00;79342.88;5014676;28;20076;-68
2022/04/03 05:47:38;;;;;;;4.00;2.40;;;;;;;-142.75;100.00;79323.16;5014590;28;20030;-68
2022/04/03 05:50:05;;;;;;;4.60;2.60;;;;;;;-142.75;100.00;79297.56;5014319;28;20104;-69
2022/04/03 05:52:41;;;;;;;6.90;2.60;;;;;;;-142.75;100.00;79275.88;5014402;28;20503;-68
2022/04/03 05:55:08;;;;;;;7.97;3.15;;;;;;;-142.75;100.00;79256.19;5014581;28;20028;-68
2022/04/03 05:57:34;;;;;;;6.13;2.93;;;;;;;-142.75;100.00;79236.50;5014388;28;20037;-68
2022/04/03 05:59:59;;;;;;;5.85;2.72;;;;;;;-142.75;100.00;79240.44;5014383;28;20030;-67
2022/04/03 06:02:26;;;;;;;4.07;2.20;;;;;;;-142.75;100.00;79236.50;5014398;28;20026;-68
2022/04/03 06:04:52;;;;;;;5.43;3.00;;;;;;;-142.75;100.00;79226.66;5014281;28;20018;-68
2022/04/03 06:07:17;;;;;;;5.35;3.30;;;;;;;-142.75;100.00;79216.78;4996500;28;20060;-68
2022/04/03 06:09:42;;;;;;;5.13;2.73;;;;;;;-142.75;100.00;79212.84;5013982;28;20112;-68
2022/04/03 06:12:08;;;;;;;5.43;2.97;;;;;;;-142.75;100.00;79189.22;5014149;28;20408;-68
2022/04/03 06:14:33;;;;;;;4.28;2.65;;;;;;;-142.75;100.00;79175.44;5014081;28;20277;-69
2022/04/03 06:16:59;;;;;;;4.80;2.83;;;;;;;-142.75;100.00;79173.47;4996555;28;20045;-68
2022/04/03 06:19:24;;;;;;;5.15;3.00;;;;;;;-142.75;100.00;79157.72;5013679;28;20033;-67
2022/04/03 06:21:49;;;;;;;4.05;2.80;;;;;;;-142.75;100.00;79147.84;5013967;28;20041;-67
2022/04/03 06:24:15;;;;;;;7.55;2.60;;;;;;;-142.75;100.00;79128.16;5013839;28;20053;-68
2022/04/03 06:26:40;;;;;;;4.53;2.63;;;;;;;-142.75;100.00;79118.31;5014042;28;20030;-68
2022/04/03 06:29:05;;;;;;;6.13;2.23;;;;;;;-142.75;100.00;79094.69;5013546;28;20037;-68
2022/04/03 06:31:30;;;;;;;6.07;2.70;;;;;;;-142.75;100.00;79071.03;5013782;28;20104;-70
2022/04/03 06:33:56;;;;;;;7.30;2.77;;;;;;;-142.75;100.00;79055.28;5013885;28;20033;-68
2022/04/03 06:36:21;;;;;;;5.83;2.53;;;;;;;-142.75;100.00;79027.69;5013561;28;20657;-70
2022/04/03 06:38:46;;;;;;;5.30;2.70;;;;;;;-142.75;100.00;79017.84;5013318;28;20029;-68
2022/04/03 06:41:11;;;;;;;4.93;2.30;;;;;;;-142.75;100.00;78982.41;5013544;28;20014;-68
2022/04/03 06:43:37;;;;;;;4.03;2.28;;;;;;;-142.75;100.00;78956.78;5013546;28;20795;-66
2022/04/03 06:46:03;;;;;;;6.22;2.80;;;;;;;-142.75;100.00;78923.31;5013508;28;20034;-66
2022/04/03 06:48:29;;;;;;;4.05;2.67;;;;;;;-142.75;100.00;78897.72;5012542;28;20026;-66
2022/04/03 06:50:54;;;;;;;5.15;2.88;;;;;;;-142.75;100.00;78885.88;5013414;28;20072;-67
2022/04/03 06:53:19;;;;;;;5.55;2.38;;;;;;;-142.75;100.00;78866.19;5013536;28;20061;-66
2022/04/03 06:55:45;;;;;;;8.95;3.15;;;;;;;-142.75;100.00;78826.81;5013459;28;20045;-67
2022/04/03 06:58:10;;;;;;;4.22;2.40;;;;;;;-142.75;100.00;78807.09;5012725;28;20025;-66
2022/04/03 07:00:40;;;;;;;3.60;2.47;;;;;;;-142.75;100.00;78781.50;5013242;28;20511;-67
2022/04/03 07:03:05;;;;;;;4.90;2.30;;;;;;;-142.75;100.00;78751.97;5013272;28;20624;-67
2022/04/03 07:05:31;;;;;;;4.22;2.00;;;;;;;-142.75;100.00;78726.34;4995429;28;20045;-67
2022/04/03 07:07:56;;;;;;;3.42;2.03;;;;;;;-142.75;100.00;78702.72;5012822;28;20037;-67
2022/04/03 07:10:21;;;;;;;3.95;2.35;;;;;;;-142.75;100.00;78679.09;5013168;28;20026;-68
2022/04/03 07:12:47;;;;;;;7.28;2.22;;;;;;;-142.75;100.00;78645.59;5012902;28;20558;-67
2022/04/03 07:15:13;;;;;;;3.72;2.00;;;;;;;-142.75;100.00;78629.84;5012885;28;20096;-67
2022/04/03 07:17:39;;;;;;;;;;;;;;;-142.75;100.00;78602.28;5013051;28;20496;-68
2022/04/03 07:20:06;;;;;;;3.67;2.13;;;;;;;-142.75;100.00;78602.28;5012643;28;19983;-67
2022/04/03 07:22:31;;;;;;;2.37;1.40;;;;;;;-142.75;100.00;78586.53;4994898;28;20025;-67
2022/04/03 07:24:56;;;;;;;3.43;1.80;;;;;;;-142.75;100.00;78572.72;5013103;28;20468;-68
2022/04/03 07:27:22;;;;;;;2.15;1.20;;;;;;;-142.75;100.00;78535.31;5012690;28;20280;-65
2022/04/03 07:29:47;;;;;;;3.42;1.60;;;;;;;-142.75;100.00;78523.50;4994906;28;20022;-68
2022/04/03 07:32:12;;;;;;;4.43;1.77;;;;;;;-142.75;100.00;78515.63;5012658;28;20030;-67
2022/04/03 07:34:37;;;;;;;1.88;0.90;;;;;;;-142.75;100.00;78505.78;5012970;28;20260;-68
2022/04/03 07:37:03;;;;;;;4.80;1.50;;;;;;;-142.75;100.00;78491.97;5012865;28;20030;-66
2022/04/03 07:39:28;;;;;;;2.72;1.50;;;;;;;-142.75;100.00;78484.09;5012125;28;20088;-67
2022/04/03 07:41:54;;;;;;;4.57;1.63;;;;;;;-142.75;100.00;78476.22;5012508;28;20498;-67
2022/04/03 07:44:19;;;;;;;5.68;1.88;;;;;;;-142.75;100.00;78491.97;4994539;28;20044;-68
2022/04/03 07:46:44;;;;;;;2.92;1.15;;;;;;;-142.75;100.00;78511.69;5012386;28;20026;-67
2022/04/03 07:49:10;;;;;;;4.07;1.70;;;;;;;-142.75;100.00;78519.56;5011941;28;20512;-67
2022/04/03 07:51:36;;;;;;;3.30;1.20;;;;;;;-142.75;100.00;78468.34;5012188;28;20109;-66
2022/04/03 07:54:02;;;;;;;2.60;1.02;;;;;;;-142.75;100.00;78456.53;4994541;28;20018;-67
2022/04/03 07:56:27;;;;;;;3.28;1.10;;;;;;;-142.75;100.00;78432.91;5012022;28;20030;-66
2022/04/03 07:58:52;;;;;;;6.20;2.45;;;;;;;-142.75;100.00;78430.94;5011735;28;20498;-66
2022/04/03 08:01:18;;;;;;;3.03;1.30;;;;;;;-142.75;100.00;78417.16;5011154;28;20033;-67
2022/04/03 08:03:43;;;;;;;2.80;1.23;;;;;;;-142.75;100.00;78365.94;5011949;28;20073;-69
2022/04/03 08:06:09;;;;;;;3.95;1.05;;;;;;;-142.75;100.00;78324.59;5011894;28;20061;-70
2022/04/03 08:08:34;;;;;;;;;;;;;;;-142.75;100.00;78302.94;4994465;28;20026;-68
2022/04/03 08:11:00;;;;;;;3.33;0.90;;;;;;;-142.75;100.00;78271.41;5011904;28;19921;-69
2022/04/03 08:13:25;;;;;;;7.85;1.23;;;;;;;-142.75;98.24;78275.34;5011896;28;20022;-68
2022/04/03 08:15:50;;;;;;;2.92;1.25;;;;;;;-142.75;95.73;78241.88;5011514;28;20017;-68
2022/04/03 08:18:16;;;;;;;2.72;0.75;;;;;;;-142.75;93.70;78222.19;4993582;28;20147;-69
2022/04/03 08:20:43;;;;;;;;;;;;;;;-142.75;90.24;78192.66;5012134;28;20029;-67
2022/04/03 08:23:08;;;;;;;3.72;1.00;;;;;;;-142.75;90.08;78178.84;5011731;28;19919;-70
2022/04/03 08:25:34;;;;;;;3.13;0.93;;;;;;;-142.75;86.83;78141.44;5011670;28;20527;-67
2022/04/03 08:28:00;;;;;;;3.28;1.20;;;;;;;-142.75;85.52;78143.41;5011282;28;20047;-67
2022/04/03 08:30:31;;;;;;;1.80;0.70;;;;;;;-142.75;85.77;78165.06;5011605;28;20119;-68
2022/04/03 08:32:57;;;;;;;3.20;0.77;;;;;;;-142.75;84.71;78235.97;5010592;28;20048;-68
2022/04/03 08:35:24;;;;;;;3.42;0.80;;;;;;;-142.75;88.27;78295.06;4993955;28;20507;-67
2022/04/03 08:37:50;;;;;;;3.25;0.70;;;;;;;-142.75;90.20;78314.75;4994713;28;20053;-67
2022/04/03 08:40:15;;;;;;;;;;;;;;;-142.75;89.71;78360.03;5011867;28;20028;-67
2022/04/03 08:42:41;;;;;;;1.80;0.50;;;;;;;-142.75;91.51;78381.69;4993787;28;19996;-67
2022/04/03 08:45:11;;;;;;;3.20;0.80;;;;;;;-142.75;94.33;78350.19;4993431;28;20030;-68
2022/04/03 08:47:46;;;;;;;3.87;1.00;;;;;;;-142.75;93.47;78365.94;5010476;28;20034;-69
2022/04/03 08:50:13;;;;;;;2.33;0.73;;;;;;;-142.75;92.23;78381.69;4993526;28;20088;-68
2022/04/03 08:52:44;;;;;;;2.80;0.70;;;;;;;-142.75;94.57;78362.00;4993581;28;20040;-69
2022/04/03 08:55:10;;;;;;;0.80;0.50;;;;;;;-142.75;92.74;78385.63;4992972;28;20030;-68
2022/04/03 08:57:35;;;;;;;2.30;0.60;;;;;;;-142.75;90.28;78332.47;5011022;28;20558;-68
2022/04/03 09:00:01;;;;;;;6.43;0.90;;;;;;;-142.75;89.61;78235.97;5010953;28;20026;-70
2022/04/03 09:02:27;;;;;;;3.05;0.65;;;;;;;-142.75;82.79;78147.34;5010444;28;20026;-68
2022/04/03 09:04:52;;;;;;;2.58;0.80;;;;;;;-142.75;83.11;78084.34;5010984;28;20025;-66
2022/04/03 09:07:19;;;;;;;2.28;0.55;;;;;;;-142.75;79.20;78064.66;5010940;28;20026;-68
2022/04/03 09:09:47;;;;;;;2.45;0.85;;;;;;;-142.75;76.94;78062.69;5010788;28;20611;-68
2022/04/03 09:12:16;;;;;;;2.88;0.70;;;;;;;-142.75;77.09;78113.88;5010698;28;20510;-68
2022/04/03 09:14:49;;;;;;;4.57;0.70;;;;;;;-142.75;78.19;78133.56;5010960;28;20105;-68
2022/04/03 09:17:34;;;;;;;3.53;0.88;;;;;;;-142.75;79.81;78220.22;5011035;28;20037;-68
2022/04/03 09:20:03;;;;;;;1.08;0.50;;;;;;;-142.75;85.05;78243.84;4992322;28;20042;-68
2022/04/03 09:22:28;;;;;;;2.30;0.55;;;;;;;-142.75;85.73;78287.16;5011060;28;20061;-68
2022/04/03 09:24:55;;;;;;;1.38;0.63;;;;;;;-142.75;87.01;78304.91;5010965;28;20063;-66
2022/04/03 09:27:20;;;;;;;2.28;0.40;;;;;;;-142.75;90.35;78340.34;5010886;28;20033;-68
2022/04/03 09:29:45;;;;;;;2.75;0.80;;;;;;;-142.75;88.24;78377.75;5010535;28;20037;-69
2022/04/03 09:32:11;;;;;;;1.63;0.50;;;;;;;-142.75;89.19;78403.38;4993203;28;20033;-68
2022/04/03 09:34:38;;;;;;;1.75;0.70;;;;;;;-142.75;89.38;78409.28;5010981;28;20022;-68
2022/04/03 09:37:06;;;;;;;1.83;0.60;;;;;;;-142.75;91.39;78442.75;5010832;28;20087;-68
2022/04/03 09:39:32;;;;;;;2.27;0.67;;;;;;;-142.75;97.63;78472.28;5010471;28;20053;-69
2022/04/03 09:41:59;;;;;;;;;;;;;;;-142.75;100.00;78486.06;4992534;28;20045;-70
2022/04/03 09:44:30;;;;;;;1.85;0.60;;;;;;;-142.75;100.00;78491.97;5010955;28;20256;-68
2022/04/03 09:47:30;;;;;;;3.37;0.60;;;;;;;-142.75;100.00;78515.63;5010830;28;20029;-68
2022/04/03 09:50:01;;;;;;;1.40;0.60;;;;;;;-142.75;100.00;78513.66;5010055;28;20025;-68
2022/04/03 09:52:43;;;;;;;2.30;0.70;;;;;;;-142.75;100.00;78513.66;5010179;28;20026;-68
2022/04/03 09:55:22;;;;;;;2.40;0.53;;;;;;;-142.75;100.00;78495.94;5010572;28;20022;-69
2022/04/03 09:57:50;;;;;;;1.00;0.50;;;;;;;-142.75;100.00;78460.47;5010250;28;20017;-68
2022/04/03 10:00:29;;;;;;;3.90;0.83;;;;;;;-142.75;100.00;78409.28;5010685;28;20022;-68
2022/04/03 10:03:05;;;;;;;4.90;0.73;;;;;;;-142.75;92.56;78377.75;4992766;28;20040;-68
2022/04/03 10:05:32;;;;;;;1.23;0.70;;;;;;;-142.75;90.48;78302.94;5010440;28;20014;-68
2022/04/03 10:07:59;;;;;;;1.33;0.53;;;;;;;-142.75;81.56;78192.66;5010133;28;20026;-67
2022/04/03 10:10:25;;;;;;;1.87;0.73;;;;;;;-142.75;80.81;78143.41;5010453;28;20503;-67
2022/04/03 10:12:51;;;;;;;2.30;0.50;;;;;;;-142.75;77.78;78182.81;5010486;28;20084;-67
2022/04/03 10:15:16;;;;;;;1.23;0.30;;;;;;;-142.75;79.50;78224.16;5010485;28;20034;-68
2022/04/03 10:20:28;;;;;;;0.73;0.30;;;;;;;-142.75;84.16;78312.78;5047046;28;20044;-65
2022/04/03 10:23:13;;;;;;;0.57;0.30;;;;;;;-142.75;84.16;78350.19;5052168;28;20025;-65
2022/04/03 10:25:46;;;;;;;1.43;0.30;;;;;;;-142.75;87.65;78365.94;5054505;28;20083;-67
2022/04/03 10:28:16;;;;;;;3.00;0.50;;;;;;;-142.75;92.93;78369.88;5050516;28;20036;-66
2022/04/03 10:30:44;;;;;;;1.93;0.70;;;;;;;-142.75;96.32;78354.13;5032877;28;20064;-66
2022/04/03 10:33:20;;;;;;;2.17;0.37;;;;;;;-142.75;96.45;78338.38;5039228;28;20032;-66
2022/04/03 10:36:07;;;;;;;1.23;0.50;;;;;;;-142.75;93.92;78379.72;5038895;28;20022;-67
2022/04/03 10:38:43;;;;;;;1.13;0.50;;;;;;;-142.75;95.64;78373.81;5036516;28;20475;-65
2022/04/03 10:41:25;;;;;;;2.73;0.47;;;;;;;-142.75;96.81;78379.72;5034066;28;20052;-65
2022/04/03 10:44:10;;;;;;;4.87;0.67;;;;;;;-142.75;99.06;78385.63;5033378;28;20042;-65
2022/04/03 10:47:01;;;;;;;2.10;0.50;;;;;;;-142.75;95.45;78389.56;5032239;28;20525;-65
2022/04/03 10:49:49;;;;;;;1.93;0.60;;;;;;;-142.75;92.95;78363.97;5032945;28;20414;-65
2022/04/03 10:52:17;;;;;;;;;;;;;;;-142.75;95.90;78314.75;5033897;28;20063;-66
2022/04/03 10:54:48;;;;;;;0.70;0.37;;;;;;;-142.75;93.58;78273.38;5033240;28;19917;-66
2022/04/03 10:57:46;;;;;;;2.17;0.50;;;;;;;-142.75;93.18;78275.34;5031979;28;20025;-65
2022/04/03 11:00:12;;;;;;;5.13;0.80;;;;;;;-142.75;93.78;78297.00;5033084;28;20028;-66
2022/04/03 11:02:44;;;;;;;1.67;0.67;;;;;;;-142.75;91.93;78308.84;5033225;28;20033;-66
2022/04/03 11:05:21;;;;;;;1.07;0.30;;;;;;;-142.75;93.02;78306.88;5032990;28;20045;-66
2022/04/03 11:08:13;;;;;;;1.07;0.33;;;;;;;-142.75;89.58;78312.78;5032876;28;20025;-64
2022/04/03 11:10:56;;;;;;;0.47;0.20;;;;;;;-142.75;86.79;78318.69;5032911;28;20040;-67
2022/04/03 11:13:31;;;;;;;2.63;0.40;;;;;;;-142.75;84.93;78312.78;5032909;28;20029;-65
2022/04/03 11:15:59;;;;;;;1.97;0.37;;;;;;;-142.75;84.90;78318.69;5033240;28;20040;-65
2022/04/03 11:18:39;;;;;;;0.93;0.30;;;;;;;-142.75;85.42;78340.34;5029197;28;20403;-65